Time;durP1;ratioP1;P1;durP2;ratioP2;P2;SDS_P1;SDS_P2;PMS_P1;PMS_P2;Temp;Humidity;BMP_temperature;BMP_pressure;BME280_temperature;BME280_humidity;BME280_pressure;Samples;Min_cycle;Max_cycle;Signal;HPM_P1;HPM_P2
2021/12/11 00:02:19;;;;;;;70.47;23.08;;;-2.10;99.90;;;;;;5117557;27;20039;-67
2021/12/11 00:04:48;;;;;;;82.55;20.25;;;-2.10;99.90;;;;;;5117711;27;20039;-67
2021/12/11 00:07:16;;;;;;;54.28;17.23;;;-2.10;99.90;;;;;;5117073;27;20043;-67
2021/12/11 00:09:48;;;;;;;54.42;18.20;;;-2.10;99.90;;;;;;5110591;27;20028;-67
2021/12/11 00:12:32;;;;;;;51.65;19.63;;;-2.10;99.90;;;;;;5116975;27;20035;-68
2021/12/11 00:15:09;;;;;;;51.38;19.73;;;-2.00;99.90;;;;;;5111221;27;20039;-67
2021/12/11 00:17:35;;;;;;;62.42;20.35;;;-2.10;99.90;;;;;;5089218;27;20443;-67
2021/12/11 00:20:06;;;;;;;59.08;20.85;;;-2.00;99.90;;;;;;5096138;27;20430;-67
2021/12/11 00:22:33;;;;;;;55.55;19.48;;;-2.10;99.90;;;;;;5095617;27;20062;-67
2021/12/11 00:25:06;;;;;;;47.78;17.70;;;-2.10;99.90;;;;;;5116925;27;20027;-67
2021/12/11 00:27:33;;;;;;;46.58;19.27;;;-2.10;99.90;;;;;;5104831;27;20034;-67
2021/12/11 00:29:59;;;;;;;56.42;20.70;;;-2.10;99.90;;;;;;5115338;27;20062;-67
2021/12/11 00:32:29;;;;;;;59.80;19.33;;;-2.10;99.90;;;;;;5116262;27;20830;-67
2021/12/11 00:35:02;;;;;;;59.00;19.58;;;-2.10;99.90;;;;;;5116019;27;20077;-67
2021/12/11 00:37:28;;;;;;;69.30;22.25;;;-2.20;99.90;;;;;;5114489;27;20043;-67
2021/12/11 00:39:58;;;;;;;59.70;19.88;;;-2.20;99.90;;;;;;5115041;27;20043;-68
2021/12/11 00:42:31;;;;;;;111.90;18.70;;;-2.30;99.90;;;;;;5115992;27;20114;-67
2021/12/11 00:44:59;;;;;;;161.73;22.08;;;-2.30;99.90;;;;;;5115990;27;20095;-67
2021/12/11 00:47:31;;;;;;;60.63;20.70;;;-2.30;99.90;;;;;;5091304;27;20042;-68
2021/12/11 00:50:10;;;;;;;59.78;20.10;;;-2.30;99.90;;;;;;5114707;27;20573;-67
2021/12/11 00:52:51;;;;;;;63.00;21.75;;;-2.30;99.90;;;;;;5113212;27;20031;-68
2021/12/11 00:55:21;;;;;;;58.10;20.75;;;-2.30;99.90;;;;;;5115240;27;20035;-67
2021/12/11 00:57:49;;;;;;;72.45;23.75;;;-2.30;99.90;;;;;;5115287;27;20116;-67
2021/12/11 01:00:20;;;;;;;59.25;21.02;;;-2.30;99.90;;;;;;5112649;27;20043;-68
2021/12/11 01:02:49;;;;;;;65.90;22.13;;;-2.30;99.90;;;;;;5115124;27;20039;-68
2021/12/11 01:05:15;;;;;;;59.53;20.70;;;-2.30;99.90;;;;;;5115549;27;20035;-67
2021/12/11 01:07:41;;;;;;;59.78;20.45;;;-2.40;99.90;;;;;;5110597;27;20039;-68
2021/12/11 01:10:22;;;;;;;60.10;20.95;;;-2.40;99.90;;;;;;5114055;27;20461;-67
2021/12/11 01:12:55;;;;;;;52.38;18.92;;;-2.30;99.90;;;;;;5109215;27;20489;-68
2021/12/11 01:15:45;;;;;;;54.67;19.88;;;-2.30;99.90;;;;;;5118367;27;20117;-68
2021/12/11 01:21:03;;;;;;;58.92;19.67;;;-2.20;99.90;;;;;;5109620;27;20099;-68
2021/12/11 01:26:07;;;;;;;64.50;21.38;;;-2.30;99.90;;;;;;5108027;27;20047;-68
2021/12/11 01:28:33;;;;;;;63.83;20.25;;;-2.30;99.90;;;;;;5113816;27;20076;-68
2021/12/11 01:31:00;;;;;;;71.55;22.67;;;-2.30;99.90;;;;;;5113908;27;20431;-68
2021/12/11 01:33:26;;;;;;;66.70;22.83;;;-2.30;99.90;;;;;;5112525;27;20085;-68
2021/12/11 01:35:52;;;;;;;60.67;21.88;;;-2.30;99.90;;;;;;5113768;27;20082;-68
2021/12/11 01:38:29;;;;;;;41.83;17.02;;;-2.30;99.90;;;;;;5113935;27;20043;-68
2021/12/11 01:41:01;;;;;;;45.67;18.50;;;-2.30;99.90;;;;;;5111941;27;20102;-68
2021/12/11 01:43:29;;;;;;;49.72;17.80;;;-2.20;99.90;;;;;;5112517;27;20051;-68
2021/12/11 01:45:57;;;;;;;46.85;17.88;;;-2.30;99.90;;;;;;5113470;27;20156;-68
2021/12/11 01:48:33;;;;;;;46.75;18.00;;;-2.30;99.90;;;;;;5110719;27;20116;-68
2021/12/11 01:51:17;;;;;;;41.45;17.05;;;-2.40;99.90;;;;;;5112898;27;20035;-68
2021/12/11 01:53:49;;;;;;;41.95;16.15;;;-2.40;99.90;;;;;;5111546;27;20416;-68
2021/12/11 01:56:18;;;;;;;44.90;16.73;;;-2.40;99.90;;;;;;5111413;27;20046;-68
2021/12/11 01:58:47;;;;;;;44.65;17.85;;;-2.40;99.90;;;;;;5112478;27;20300;-68
2021/12/11 02:01:35;;;;;;;44.42;16.77;;;-2.40;99.90;;;;;;5126310;27;20050;-68
2021/12/11 02:04:02;;;;;;;50.63;17.98;;;-2.40;99.90;;;;;;5110450;27;20039;-68
2021/12/11 02:06:32;;;;;;;56.88;19.63;;;-2.50;99.90;;;;;;5106818;27;20127;-68
2021/12/11 02:08:58;;;;;;;62.20;21.58;;;-2.40;99.90;;;;;;5095143;27;20050;-68
2021/12/11 02:11:30;;;;;;;53.90;20.13;;;-2.50;99.90;;;;;;5110845;27;20035;-68
2021/12/11 02:14:04;;;;;;;53.80;18.50;;;-2.50;99.90;;;;;;5109246;27;20118;-68
2021/12/11 02:16:42;;;;;;;50.35;17.65;;;-2.50;99.90;;;;;;5112895;27;20058;-68
2021/12/11 02:19:16;;;;;;;170.38;22.30;;;-2.60;99.90;;;;;;5111692;27;20091;-68
2021/12/11 02:22:05;;;;;;;155.98;22.17;;;-2.70;99.90;;;;;;5112520;27;20138;-68
2021/12/11 02:24:56;;;;;;;76.25;21.38;;;-2.70;99.90;;;;;;5112653;27;20142;-69
2021/12/11 02:27:23;;;;;;;55.35;18.15;;;-2.80;99.90;;;;;;5111803;27;20039;-68
2021/12/11 02:30:20;;;;;;;43.92;16.02;;;-2.90;99.90;;;;;;5110748;27;20381;-68
2021/12/11 02:33:17;;;;;;;50.45;18.85;;;-3.00;99.90;;;;;;5111764;27;20035;-69
2021/12/11 02:35:49;;;;;;;47.42;17.27;;;-3.00;99.90;;;;;;5105930;27;20058;-68
2021/12/11 02:38:20;;;;;;;53.60;18.60;;;-3.00;99.90;;;;;;5112499;27;20387;-68
2021/12/11 02:41:06;;;;;;;45.38;17.42;;;-2.90;99.90;;;;;;5110020;27;20042;-68
2021/12/11 02:43:45;;;;;;;54.22;19.05;;;-2.90;99.90;;;;;;5112770;27;20042;-68
2021/12/11 02:46:20;;;;;;;50.35;19.05;;;-2.90;99.90;;;;;;5090198;27;20032;-69
2021/12/11 02:48:51;;;;;;;58.90;20.00;;;-2.80;99.90;;;;;;5110716;27;20035;-68
2021/12/11 02:51:34;;;;;;;52.25;19.08;;;-2.80;99.90;;;;;;5111092;27;20346;-69
2021/12/11 02:54:17;;;;;;;52.20;18.70;;;-2.80;99.90;;;;;;5110098;27;20046;-69
2021/12/11 02:56:48;;;;;;;49.92;18.48;;;-2.90;99.90;;;;;;5109864;27;20035;-69
2021/12/11 02:59:17;;;;;;;48.97;19.88;;;-2.90;99.90;;;;;;5106742;28;20230;-69
2021/12/11 03:01:51;;;;;;;50.67;18.77;;;-2.90;99.90;;;;;;5115553;27;20539;-69
2021/12/11 03:04:30;;;;;;;44.88;16.80;;;-2.90;99.90;;;;;;5126896;27;20084;-69
2021/12/11 03:06:57;;;;;;;49.25;17.98;;;-2.90;99.90;;;;;;5107225;27;20043;-69
2021/12/11 03:09:30;;;;;;;52.63;19.48;;;-2.90;99.90;;;;;;5102696;27;20050;-69
2021/12/11 03:11:58;;;;;;;55.67;19.20;;;-2.90;99.90;;;;;;5109021;27;20032;-69
2021/12/11 03:14:26;;;;;;;54.88;20.00;;;-2.90;99.90;;;;;;5126297;28;20039;-68
2021/12/11 03:16:53;;;;;;;53.65;20.20;;;-2.90;99.90;;;;;;5111355;28;20074;-69
2021/12/11 03:19:23;;;;;;;61.85;22.35;;;-2.90;99.90;;;;;;5111137;28;20066;-68
2021/12/11 03:21:51;;;;;;;63.03;20.80;;;-2.90;99.90;;;;;;5109612;28;20431;-68
2021/12/11 03:24:17;;;;;;;64.30;22.02;;;-2.90;99.90;;;;;;5112182;28;20082;-68
2021/12/11 03:26:45;;;;;;;61.40;20.77;;;-2.90;99.90;;;;;;5111459;28;20066;-68
2021/12/11 03:29:11;;;;;;;56.92;21.10;;;-2.90;99.90;;;;;;5109473;28;20091;-68
2021/12/11 03:31:39;;;;;;;57.67;20.73;;;-2.90;99.90;;;;;;5108171;28;20028;-68
2021/12/11 03:34:08;;;;;;;57.63;20.25;;;-3.00;99.90;;;;;;5110351;28;20031;-68
2021/12/11 03:36:36;;;;;;;58.67;20.23;;;-3.00;99.90;;;;;;5091412;28;20062;-68
2021/12/11 03:39:18;;;;;;;70.63;21.90;;;-3.00;99.90;;;;;;5108750;27;20042;-69
2021/12/11 03:41:47;;;;;;;;;;;-3.10;99.90;;;;;;5107117;28;20524;-69
2021/12/11 03:44:13;;;;;;;61.28;20.25;;;-3.10;99.90;;;;;;5094167;28;20368;-68
2021/12/11 03:46:40;;;;;;;59.05;19.67;;;-3.20;99.90;;;;;;5111064;28;20312;-68
2021/12/11 03:49:13;;;;;;;65.13;20.65;;;-3.30;99.90;;;;;;5110564;28;20031;-69
2021/12/11 03:51:39;;;;;;;;;;;-3.30;99.90;;;;;;5111615;28;20067;-69
2021/12/11 03:54:09;;;;;;;56.95;18.88;;;-3.30;99.90;;;;;;5111496;28;20374;-68
2021/12/11 03:56:36;;;;;;;57.42;19.13;;;-3.30;99.90;;;;;;5124684;27;20054;-68
2021/12/11 03:59:08;;;;;;;74.32;20.88;;;-3.30;99.90;;;;;;5110293;28;20043;-68
2021/12/11 04:01:37;;;;;;;57.88;18.90;;;-3.30;99.90;;;;;;5110954;28;20524;-69
2021/12/11 04:04:08;;;;;;;64.63;20.98;;;-3.30;99.90;;;;;;5109990;28;20092;-68
2021/12/11 04:06:34;;;;;;;68.50;21.02;;;-3.40;99.90;;;;;;5111243;28;21449;-68
2021/12/11 04:09:03;;;;;;;69.50;23.55;;;-3.40;99.90;;;;;;5105967;28;20508;-68
2021/12/11 04:11:32;;;;;;;74.15;24.13;;;-3.40;99.90;;;;;;5112912;27;20133;-68
2021/12/11 04:14:03;;;;;;;81.95;25.73;;;-3.40;99.90;;;;;;5115066;27;20062;-68
2021/12/11 04:16:29;;;;;;;82.72;25.95;;;-3.30;99.90;;;;;;5114227;27;20503;-68
2021/12/11 04:18:54;;;;;;;85.38;27.13;;;-3.20;99.90;;;;;;5114396;27;20043;-68
2021/12/11 04:21:21;;;;;;;91.93;26.60;;;-3.20;99.90;;;;;;5114153;27;20050;-68
2021/12/11 04:23:47;;;;;;;96.28;29.23;;;-3.20;99.90;;;;;;5107087;27;20043;-68
2021/12/11 04:26:13;;;;;;;68.00;23.67;;;-3.10;99.90;;;;;;5114708;27;20494;-68
2021/12/11 04:28:40;;;;;;;74.97;25.15;;;-3.10;99.90;;;;;;5114193;27;20070;-68
2021/12/11 04:31:13;;;;;;;84.72;24.38;;;-3.00;99.90;;;;;;5114634;27;20035;-68
2021/12/11 04:33:44;;;;;;;74.18;24.55;;;-3.10;99.90;;;;;;5113103;27;20400;-68
2021/12/11 04:36:14;;;;;;;59.38;21.45;;;-3.10;99.90;;;;;;5096719;27;20401;-68
2021/12/11 04:38:40;;;;;;;68.95;21.42;;;-3.10;99.90;;;;;;5114097;27;20051;-67
2021/12/11 04:41:08;;;;;;;59.10;20.45;;;-3.10;99.90;;;;;;5115327;27;20080;-67
2021/12/11 04:43:35;;;;;;;57.05;18.88;;;-3.10;99.90;;;;;;5098225;27;20386;-67
2021/12/11 04:46:06;;;;;;;58.63;20.80;;;-3.10;99.90;;;;;;5113811;27;20043;-68
2021/12/11 04:48:44;;;;;;;54.83;20.15;;;-3.10;99.90;;;;;;5113293;27;20050;-68
2021/12/11 04:54:15;;;;;;;66.63;21.08;;;-3.20;99.90;;;;;;5114352;27;20039;-68
2021/12/11 05:00:05;;;;;;;55.03;18.00;;;-3.20;99.90;;;;;;5113450;27;20177;-68
2021/12/11 05:05:30;;;;;;;56.85;18.58;;;-3.40;99.90;;;;;;5112434;27;20142;-68
2021/12/11 05:08:27;;;;;;;57.58;18.83;;;-3.60;99.90;;;;;;5111146;27;20039;-68
2021/12/11 05:11:02;;;;;;;57.13;20.15;;;-3.70;99.90;;;;;;5109783;27;20043;-68
2021/12/11 05:13:29;;;;;;;55.72;19.00;;;-3.80;99.90;;;;;;5112117;27;20035;-68
2021/12/11 05:16:02;;;;;;;58.80;19.85;;;-3.90;99.90;;;;;;5115386;27;20405;-68
2021/12/11 05:18:29;;;;;;;;;;;-4.00;99.90;;;;;;5115355;27;20039;-68
2021/12/11 05:21:00;;;;;;;57.75;18.50;;;-4.00;99.90;;;;;;5115451;27;19970;-68
2021/12/11 05:23:26;;;;;;;63.05;19.77;;;-4.00;99.90;;;;;;5114255;27;20058;-68
2021/12/11 05:25:53;;;;;;;60.72;19.48;;;-3.90;99.90;;;;;;5110580;27;20119;-68
2021/12/11 05:28:19;;;;;;;60.38;19.27;;;-3.80;99.90;;;;;;5117332;27;20031;-68
2021/12/11 05:30:51;;;;;;;63.25;19.98;;;-3.80;99.90;;;;;;5114064;27;20071;-68
2021/12/11 05:33:18;;;;;;;;;;;-3.80;99.90;;;;;;5114322;27;20038;-68
2021/12/11 05:35:44;;;;;;;52.50;17.63;;;-3.80;99.90;;;;;;5114370;27;19915;-68
2021/12/11 05:38:12;;;;;;;64.65;22.13;;;-3.70;99.90;;;;;;5115565;27;20509;-68
2021/12/11 05:40:41;;;;;;;63.03;22.90;;;-3.70;99.90;;;;;;5112922;27;20797;-68
2021/12/11 05:43:08;;;;;;;70.18;22.55;;;-3.70;99.90;;;;;;5113900;27;20046;-68
2021/12/11 05:45:35;;;;;;;72.22;22.52;;;-3.60;99.90;;;;;;5114085;27;20163;-68
2021/12/11 05:48:01;;;;;;;69.40;22.25;;;-3.60;99.90;;;;;;5097006;27;20035;-68
2021/12/11 05:50:32;;;;;;;78.75;24.42;;;-3.60;99.90;;;;;;5114115;27;20045;-68
2021/12/11 05:53:01;;;;;;;87.18;27.65;;;-3.60;99.90;;;;;;5112063;27;20084;-68
2021/12/11 05:55:29;;;;;;;88.18;26.00;;;-3.50;99.90;;;;;;5113878;27;20390;-68
2021/12/11 05:57:57;;;;;;;79.75;24.92;;;-3.50;99.90;;;;;;5108851;27;20039;-68
2021/12/11 06:00:33;;;;;;;89.10;27.20;;;-3.40;99.90;;;;;;5114491;27;20043;-68
2021/12/11 06:03:01;;;;;;;85.50;25.95;;;-3.40;99.90;;;;;;5111851;27;20508;-68
2021/12/11 06:05:28;;;;;;;90.60;28.40;;;-3.30;99.90;;;;;;5096854;27;20039;-68
2021/12/11 06:07:53;;;;;;;86.57;27.02;;;-3.40;99.90;;;;;;5111856;27;20042;-68
2021/12/11 06:10:24;;;;;;;90.57;27.00;;;-3.40;99.90;;;;;;5112118;27;20047;-68
2021/12/11 06:12:53;;;;;;;73.60;22.70;;;-3.30;99.90;;;;;;5110989;27;20996;-68
2021/12/11 06:15:19;;;;;;;60.25;20.38;;;-3.40;99.90;;;;;;5098301;27;20081;-68
2021/12/11 06:17:46;;;;;;;63.92;21.25;;;-3.40;99.90;;;;;;5114305;27;20046;-68
2021/12/11 06:20:15;;;;;;;69.20;23.42;;;-3.40;99.90;;;;;;5110206;27;20123;-68
2021/12/11 06:22:42;;;;;;;78.32;23.75;;;-3.50;99.90;;;;;;5113952;27;20039;-67
2021/12/11 06:25:31;;;;;;;61.13;21.00;;;-3.50;99.90;;;;;;5116034;27;20042;-68
2021/12/11 06:27:57;;;;;;;68.30;22.15;;;-3.50;99.90;;;;;;5110681;27;20076;-68
2021/12/11 06:30:23;;;;;;;79.03;26.85;;;-3.50;99.90;;;;;;5124531;27;20062;-67
2021/12/11 06:32:50;;;;;;;84.25;26.92;;;-3.50;99.90;;;;;;5113611;27;20134;-68
2021/12/11 06:35:27;;;;;;;81.82;26.52;;;-3.50;99.90;;;;;;5114141;27;20484;-68
2021/12/11 06:37:52;;;;;;;85.60;26.25;;;-3.50;99.90;;;;;;5114311;27;20035;-68
2021/12/11 06:40:18;;;;;;;70.30;22.70;;;-3.50;99.90;;;;;;5097237;27;20045;-68
2021/12/11 06:42:44;;;;;;;70.85;24.90;;;-3.40;99.90;;;;;;5115138;28;20046;-67
2021/12/11 06:45:09;;;;;;;79.82;27.35;;;-3.30;99.90;;;;;;5097289;27;20070;-68
2021/12/11 06:47:35;;;;;;;83.43;26.10;;;-3.20;99.90;;;;;;5113038;27;20046;-68
2021/12/11 06:50:06;;;;;;;93.65;29.50;;;-3.20;99.90;;;;;;5114287;27;20039;-68
2021/12/11 06:52:31;;;;;;;94.22;28.38;;;-3.20;99.90;;;;;;5097492;27;20038;-68
2021/12/11 06:54:57;;;;;;;89.20;28.50;;;-3.20;99.90;;;;;;5113751;27;20042;-68
2021/12/11 06:57:23;;;;;;;96.40;31.85;;;-3.20;99.90;;;;;;5096664;27;20070;-68
2021/12/11 06:59:49;;;;;;;86.53;29.33;;;-3.20;99.90;;;;;;5095388;27;20490;-68
2021/12/11 07:02:18;;;;;;;93.80;30.55;;;-3.20;99.90;;;;;;5111348;27;20099;-68
2021/12/11 07:04:47;;;;;;;102.93;30.73;;;-3.10;99.90;;;;;;5110872;27;20118;-68
2021/12/11 07:07:19;;;;;;;97.38;31.05;;;-3.10;99.90;;;;;;5094687;27;20039;-68
2021/12/11 07:09:46;;;;;;;97.35;30.67;;;-3.10;99.90;;;;;;5108304;28;20035;-68
2021/12/11 07:12:11;;;;;;;84.35;29.05;;;-3.10;99.90;;;;;;5095153;27;20063;-68
2021/12/11 07:14:37;;;;;;;92.07;28.02;;;-3.10;99.90;;;;;;5111398;28;20077;-68
2021/12/11 07:17:03;;;;;;;90.50;29.63;;;-3.20;99.90;;;;;;5108048;27;20043;-68
2021/12/11 07:19:29;;;;;;;84.40;27.73;;;-3.20;99.90;;;;;;5111451;28;20027;-68
2021/12/11 07:21:55;;;;;;;88.95;28.88;;;-3.20;99.90;;;;;;5112074;28;20080;-68
2021/12/11 07:24:27;;;;;;;89.05;29.02;;;-3.20;99.90;;;;;;5109713;28;20114;-68
2021/12/11 07:26:53;;;;;;;96.57;31.17;;;-3.20;99.90;;;;;;5112249;28;20043;-68
2021/12/11 07:29:19;;;;;;;94.63;30.48;;;-3.20;99.90;;;;;;5109006;28;20693;-68
2021/12/11 07:31:47;;;;;;;82.13;27.23;;;-3.20;99.90;;;;;;5109967;28;20027;-68
2021/12/11 07:34:14;;;;;;;78.00;26.77;;;-3.20;99.90;;;;;;5112034;28;20038;-68
2021/12/11 07:36:41;;;;;;;80.85;27.23;;;-3.20;99.90;;;;;;5112209;28;20070;-68
2021/12/11 07:39:10;;;;;;;83.65;27.33;;;-3.30;99.90;;;;;;5095426;28;20080;-68
2021/12/11 07:41:36;;;;;;;77.63;25.70;;;-3.30;99.90;;;;;;5104188;28;20463;-68
2021/12/11 07:44:02;;;;;;;78.78;26.27;;;-3.40;99.90;;;;;;5110535;28;20213;-68
2021/12/11 07:46:30;;;;;;;79.22;27.10;;;-3.50;99.90;;;;;;5114610;27;20485;-68
2021/12/11 07:48:57;;;;;;;85.53;28.02;;;-3.50;99.90;;;;;;5115543;27;20035;-68
2021/12/11 07:51:27;;;;;;;82.32;26.02;;;-3.50;99.90;;;;;;5106451;27;20039;-68
2021/12/11 07:53:53;;;;;;;85.03;27.75;;;-3.50;99.90;;;;;;5115544;27;20035;-68
2021/12/11 07:56:20;;;;;;;83.93;28.67;;;-3.50;99.90;;;;;;5115979;27;20070;-68
2021/12/11 07:58:48;;;;;;;98.72;28.48;;;-3.50;99.90;;;;;;5114689;27;20122;-68
2021/12/11 08:01:14;;;;;;;97.30;30.45;;;-3.40;99.90;;;;;;5115092;27;20512;-68
2021/12/11 08:03:40;;;;;;;100.18;30.00;;;-3.40;99.90;;;;;;5116511;27;20027;-68
2021/12/11 08:06:08;;;;;;;92.38;28.85;;;-3.30;99.90;;;;;;5116094;27;20027;-68
2021/12/11 08:08:33;;;;;;;93.10;30.58;;;-3.30;99.90;;;;;;5115727;27;20481;-68
2021/12/11 08:11:02;;;;;;;91.57;30.67;;;-3.20;99.90;;;;;;5114954;27;20035;-68
2021/12/11 08:13:28;;;;;;;97.07;30.65;;;-3.20;99.90;;;;;;5112953;27;20417;-68
2021/12/11 08:15:55;;;;;;;97.22;31.42;;;-3.20;99.90;;;;;;5127954;27;20039;-68
2021/12/11 08:18:25;;;;;;;112.13;32.88;;;-3.10;99.90;;;;;;5115403;27;20039;-68
2021/12/11 08:20:52;;;;;;;100.93;30.83;;;-3.00;99.90;;;;;;5112705;27;20047;-68
2021/12/11 08:23:18;;;;;;;117.95;32.42;;;-3.00;99.90;;;;;;5114635;27;20130;-68
2021/12/11 08:25:45;;;;;;;104.30;32.50;;;-3.00;99.90;;;;;;5115272;27;20438;-68
2021/12/11 08:28:14;;;;;;;95.18;31.75;;;-2.90;99.90;;;;;;5114630;27;20179;-68
2021/12/11 08:30:42;;;;;;;112.32;32.28;;;-2.90;99.90;;;;;;5111532;27;20059;-68
2021/12/11 08:33:08;;;;;;;94.40;30.45;;;-2.80;99.90;;;;;;5114935;27;20120;-68
2021/12/11 08:35:34;;;;;;;87.50;29.45;;;-2.80;99.90;;;;;;5114472;27;20081;-68
2021/12/11 08:38:00;;;;;;;91.57;30.25;;;-2.80;99.90;;;;;;5115439;27;20126;-68
2021/12/11 08:40:29;;;;;;;95.35;31.15;;;-2.80;99.90;;;;;;5112395;27;20045;-69
2021/12/11 08:42:56;;;;;;;95.72;31.15;;;-2.70;99.90;;;;;;5113165;27;20039;-69
2021/12/11 08:45:33;;;;;;;121.25;32.72;;;-2.70;99.90;;;;;;5099387;27;20048;-69
2021/12/11 08:48:00;;;;;;;104.50;32.33;;;-2.70;99.90;;;;;;5096693;27;20511;-69
2021/12/11 08:50:30;;;;;;;110.60;31.73;;;-2.60;99.90;;;;;;5096780;27;20031;-70
2021/12/11 08:52:58;;;;;;;101.13;30.52;;;-2.60;99.90;;;;;;5111775;27;20031;-70
2021/12/11 08:55:34;;;;;;;104.82;30.70;;;-2.50;99.90;;;;;;5112691;27;20039;-69
2021/12/11 08:58:01;;;;;;;101.07;32.20;;;-2.50;99.90;;;;;;5106616;27;20138;-70
2021/12/11 09:00:35;;;;;;;96.53;29.67;;;-2.50;99.90;;;;;;5104179;27;20039;-70
2021/12/11 09:03:10;;;;;;;97.38;32.00;;;-2.40;99.90;;;;;;5110921;27;20096;-70
2021/12/11 09:05:54;;;;;;;91.93;31.23;;;-2.40;99.90;;;;;;5114195;27;20039;-70
2021/12/11 09:08:26;;;;;;;101.88;32.35;;;-2.40;99.90;;;;;;5090087;27;20555;-69
2021/12/11 09:11:13;;;;;;;104.17;34.53;;;-2.30;99.90;;;;;;5096010;27;20034;-69
2021/12/11 09:13:54;;;;;;;101.43;34.42;;;-2.20;99.90;;;;;;5113619;27;20039;-69
2021/12/11 09:16:37;;;;;;;118.35;36.28;;;-2.20;99.90;;;;;;5112022;27;20035;-69
2021/12/11 09:19:14;;;;;;;114.97;37.33;;;-2.10;99.90;;;;;;5110468;27;20047;-69
2021/12/11 09:22:18;;;;;;;127.63;39.10;;;-2.10;99.90;;;;;;5095658;27;20074;-69
2021/12/11 09:25:03;;;;;;;111.82;37.97;;;-2.00;99.90;;;;;;5013069;28;20052;-70
2021/12/11 09:27:40;;;;;;;125.78;39.75;;;-1.90;99.90;;;;;;5107436;27;20481;-70
2021/12/11 09:30:23;;;;;;;119.80;40.88;;;-1.80;99.90;;;;;;5110468;27;20213;-70
2021/12/11 09:32:56;;;;;;;128.90;42.55;;;-1.70;99.90;;;;;;5113670;27;20050;-69
2021/12/11 09:35:37;;;;;;;127.13;42.47;;;-1.60;99.90;;;;;;5108980;27;20038;-69
2021/12/11 09:38:31;;;;;;;112.65;39.55;;;-1.60;99.90;;;;;;5112760;27;20039;-69
2021/12/11 09:40:57;;;;;;;120.63;40.97;;;-1.50;99.90;;;;;;5110111;27;20420;-69
2021/12/11 09:43:30;;;;;;;134.85;44.03;;;-1.40;99.90;;;;;;5112228;27;20043;-69
2021/12/11 09:45:55;;;;;;;139.75;48.05;;;-1.40;99.90;;;;;;5113262;27;20164;-69
2021/12/11 09:48:21;;;;;;;184.75;59.05;;;-1.30;99.90;;;;;;5113115;27;20122;-69
2021/12/11 09:50:56;;;;;;;196.60;60.63;;;-1.20;99.90;;;;;;5112606;27;20119;-69
2021/12/11 09:53:26;;;;;;;200.20;66.75;;;-1.10;99.90;;;;;;5108822;27;20118;-69
2021/12/11 09:55:52;;;;;;;256.50;80.68;;;-1.00;99.90;;;;;;5094747;27;20499;-68
2021/12/11 09:58:22;;;;;;;284.98;90.10;;;-1.00;99.90;;;;;;5105547;27;20308;-68
2021/12/11 10:00:50;;;;;;;348.67;110.22;;;-1.00;99.90;;;;;;5109990;27;20035;-69
2021/12/11 10:03:19;;;;;;;360.63;111.95;;;-0.90;99.90;;;;;;5111101;27;20529;-69
2021/12/11 10:05:55;;;;;;;317.45;100.60;;;-0.80;99.90;;;;;;5113871;27;20042;-69
2021/12/11 10:08:30;;;;;;;283.85;92.35;;;-0.70;99.90;;;;;;5110674;27;20038;-69
2021/12/11 10:11:17;;;;;;;248.43;81.13;;;-0.60;99.90;;;;;;5110926;27;20482;-69
2021/12/11 10:13:50;;;;;;;207.50;69.57;;;-0.50;99.90;;;;;;5095627;27;20078;-69
2021/12/11 10:16:18;;;;;;;188.35;67.50;;;-0.50;99.90;;;;;;5112798;27;20359;-69
2021/12/11 10:18:45;;;;;;;177.32;60.30;;;-0.40;99.90;;;;;;5093499;27;20067;-69
2021/12/11 10:21:21;;;;;;;164.27;55.85;;;-0.40;99.90;;;;;;5112416;27;20039;-69
2021/12/11 10:23:50;;;;;;;163.77;54.78;;;-0.30;99.90;;;;;;5107186;27;20077;-70
2021/12/11 10:26:18;;;;;;;165.32;54.10;;;-0.20;99.90;;;;;;5103549;27;20142;-69
2021/12/11 10:28:51;;;;;;;151.38;51.20;;;-0.20;99.90;;;;;;5113653;27;20045;-70
2021/12/11 10:31:39;;;;;;;157.02;53.00;;;-0.10;99.90;;;;;;5110735;27;20027;-70
2021/12/11 10:34:09;;;;;;;146.48;49.60;;;0.00;99.90;;;;;;5111616;27;20431;-70
2021/12/11 10:36:41;;;;;;;151.00;51.20;;;0.00;99.90;;;;;;5110577;27;20065;-70
2021/12/11 10:39:12;;;;;;;140.90;46.83;;;0.10;99.90;;;;;;5109389;27;20046;-70
2021/12/11 10:41:39;;;;;;;139.60;45.87;;;0.10;99.90;;;;;;5110261;27;20129;-70
2021/12/11 10:44:14;;;;;;;138.00;45.92;;;0.10;99.90;;;;;;5110219;27;20049;-70
2021/12/11 10:46:47;;;;;;;150.25;47.58;;;0.20;99.90;;;;;;5124909;27;20046;-69
2021/12/11 10:49:14;;;;;;;146.05;47.45;;;0.20;99.90;;;;;;5109248;27;20039;-69
2021/12/11 10:51:45;;;;;;;144.23;45.40;;;0.30;99.90;;;;;;5111442;27;20039;-69
2021/12/11 10:54:14;;;;;;;141.85;44.35;;;0.40;99.90;;;;;;5111939;27;20039;-69
2021/12/11 10:56:41;;;;;;;130.25;43.72;;;0.40;99.90;;;;;;5111822;27;20130;-69
2021/12/11 10:59:12;;;;;;;145.43;45.08;;;0.50;99.90;;;;;;5111243;27;20035;-69
2021/12/11 11:01:43;;;;;;;148.05;47.45;;;0.50;99.90;;;;;;5112230;27;20409;-68
2021/12/11 11:04:22;;;;;;;140.55;46.25;;;0.60;99.90;;;;;;5104185;28;20506;-68
2021/12/11 11:06:49;;;;;;;142.70;44.45;;;0.60;99.90;;;;;;5092624;28;20047;-69
2021/12/11 11:09:16;;;;;;;164.32;47.65;;;0.70;99.90;;;;;;5093146;27;20066;-69
2021/12/11 11:11:43;;;;;;;181.70;54.92;;;0.80;99.90;;;;;;5110548;28;20044;-68
2021/12/11 11:14:10;;;;;;;172.55;50.85;;;1.00;99.90;;;;;;5110341;28;20044;-69
2021/12/11 11:16:41;;;;;;;172.13;48.65;;;1.20;99.90;;;;;;5087390;28;20502;-68
2021/12/11 11:19:07;;;;;;;151.90;46.70;;;1.30;99.90;;;;;;5093154;28;20539;-68
2021/12/11 11:21:37;;;;;;;156.63;47.55;;;1.40;99.90;;;;;;5122328;27;20277;-68
2021/12/11 11:24:05;;;;;;;164.88;48.17;;;1.40;99.90;;;;;;5093554;28;20082;-68
2021/12/11 11:26:36;;;;;;;157.48;47.03;;;1.50;99.90;;;;;;5093361;28;20044;-67
2021/12/11 11:29:09;;;;;;;169.75;48.53;;;1.50;99.90;;;;;;5093574;28;20035;-67
2021/12/11 11:31:39;;;;;;;153.02;47.72;;;1.50;99.90;;;;;;5093110;28;20039;-67
2021/12/11 11:34:09;;;;;;;152.68;46.85;;;1.50;99.90;;;;;;5104805;28;20120;-67
2021/12/11 11:36:36;;;;;;;140.88;46.03;;;1.60;99.90;;;;;;5113910;28;20039;-67
2021/12/11 11:39:09;;;;;;;138.93;46.25;;;1.60;99.90;;;;;;5113693;28;20080;-67
2021/12/11 11:41:44;;;;;;;147.70;47.17;;;1.60;99.90;;;;;;5109474;28;20051;-67
2021/12/11 11:44:11;;;;;;;137.48;45.53;;;1.60;99.90;;;;;;5101329;28;20035;-67
2021/12/11 11:46:39;;;;;;;151.25;48.85;;;1.70;99.90;;;;;;5094687;28;20035;-67
2021/12/11 11:49:07;;;;;;;145.40;46.65;;;1.70;99.90;;;;;;5094821;28;20028;-66
2021/12/11 11:51:44;;;;;;;137.23;46.72;;;1.70;99.90;;;;;;5095232;28;20039;-66
2021/12/11 11:54:12;;;;;;;142.27;45.20;;;1.80;99.90;;;;;;5095250;28;20040;-66
2021/12/11 11:56:46;;;;;;;144.70;45.25;;;1.80;99.90;;;;;;5095171;28;20046;-66
2021/12/11 11:59:12;;;;;;;156.02;47.40;;;1.90;99.90;;;;;;5094998;28;20043;-66
2021/12/11 12:01:42;;;;;;;147.90;44.92;;;2.00;99.90;;;;;;5095512;28;20093;-66
2021/12/11 12:04:15;;;;;;;146.35;43.42;;;2.00;99.90;;;;;;5095169;28;20043;-66
2021/12/11 12:06:42;;;;;;;152.23;44.35;;;2.10;99.90;;;;;;5094652;28;20039;-66
2021/12/11 12:09:11;;;;;;;146.25;42.28;;;2.20;99.90;;;;;;5094882;28;20070;-66
2021/12/11 12:11:39;;;;;;;164.13;45.08;;;2.20;99.90;;;;;;5095189;28;20031;-66
2021/12/11 12:14:08;;;;;;;146.85;43.90;;;2.30;99.90;;;;;;5095413;28;20520;-65
2021/12/11 12:16:38;;;;;;;145.43;44.95;;;2.30;99.90;;;;;;5099678;28;20119;-66
2021/12/11 12:19:04;;;;;;;144.52;42.28;;;2.40;99.90;;;;;;5115293;28;20121;-65
2021/12/11 12:21:31;;;;;;;144.73;42.20;;;2.50;99.90;;;;;;5114721;28;20050;-65
2021/12/11 12:23:57;;;;;;;135.05;42.60;;;2.70;99.90;;;;;;5114871;28;20521;-66
2021/12/11 12:26:26;;;;;;;145.10;43.53;;;2.80;99.90;;;;;;5114975;28;20044;-65
2021/12/11 12:28:53;;;;;;;143.07;40.83;;;2.90;99.90;;;;;;5115158;28;20050;-65
2021/12/11 12:31:24;;;;;;;151.90;42.88;;;3.00;99.90;;;;;;5115295;28;20076;-66
2021/12/11 12:33:50;;;;;;;134.10;41.80;;;3.00;99.90;;;;;;5117212;27;20046;-65
2021/12/11 12:36:18;;;;;;;136.55;41.47;;;3.00;99.90;;;;;;5118914;27;20293;-65
2021/12/11 12:38:47;;;;;;;126.80;39.83;;;3.10;99.90;;;;;;5118848;27;20119;-66
2021/12/11 12:41:33;;;;;;;126.28;40.08;;;3.10;99.90;;;;;;5118762;27;20113;-65
2021/12/11 12:46:50;;;;;;;129.00;39.63;;;3.20;99.90;;;;;;5118834;27;20083;-65
2021/12/11 12:49:17;;;;;;;116.95;40.50;;;3.20;99.90;;;;;;5136907;27;20035;-65
2021/12/11 12:51:44;;;;;;;122.10;40.35;;;3.30;99.90;;;;;;5118427;27;20038;-65
2021/12/11 12:54:13;;;;;;;126.35;40.80;;;3.40;99.90;;;;;;5101215;27;20037;-66
2021/12/11 12:56:46;;;;;;;119.53;40.75;;;3.40;99.90;;;;;;5118556;27;20043;-65
2021/12/11 12:59:18;;;;;;;113.93;39.70;;;3.40;99.90;;;;;;5118648;27;20047;-65
2021/12/11 13:01:57;;;;;;;120.10;40.17;;;3.50;99.90;;;;;;5118614;27;20119;-65